Edgeley, North Dakota
Current Conditions -  °F | °C
As of 9:56 AM on Wednesday 22 Oct 2014 (Local Time) from KJMS Reporting Station
Broken Clouds Broken Clouds  
Wind Chill: 55°   Ceiling: 11000
Heat Index: 55°   Visibility: 10mi
Dew Point: 42°   Wind: 14mph
Humidity: 62%   Direction: 190°S
Pressure: 29.81"   Gusts: NA
Location:  46.36°N, 98.72°W
Report Text: KJMS 221456Z AUTO 19012KT 10SM BKN110 13/06 A2981 RMK AO2 SLP096 T01280056 53012
Loading
Personal Weather Stations






























Interactive Weather Map
Tropical Storm Tracking
New forecast layout! Learn more

10-Day Weather Forecast

Advertisements
Track Severe Weather on mobile